Time;durP1;ratioP1;P1;durP2;ratioP2;P2;SDS_P1;SDS_P2;PMS_P1;PMS_P2;Temp;Humidity;BMP_temperature;BMP_pressure;BME280_temperature;BME280_humidity;BME280_pressure;Samples;Min_cycle;Max_cycle;Signal;HPM_P1;HPM_P2
2024/01/03 00:00:03;;;;;;;10.30;2.50;;;;;;;;;;5045640;28;20045;-63
2024/01/03 00:02:29;;;;;;;12.38;2.40;;;;;;;;;;5047018;28;20062;-63
2024/01/03 00:04:55;;;;;;;9.18;1.85;;;;;;;;;;5046000;28;20075;-63
2024/01/03 00:07:21;;;;;;;10.57;2.35;;;;;;;;;;5045934;28;20073;-63
2024/01/03 00:09:47;;;;;;;6.65;2.13;;;;;;;;;;5044061;28;20079;-63
2024/01/03 00:12:19;;;;;;;8.65;2.28;;;;;;;;;;5045044;28;20358;-63
2024/01/03 00:14:45;;;;;;;9.35;2.67;;;;;;;;;;5043778;28;20052;-64
2024/01/03 00:17:11;;;;;;;7.18;1.17;;;;;;;;;;5042278;28;20131;-63
2024/01/03 00:19:39;;;;;;;12.00;2.38;;;;;;;;;;5041666;28;20082;-63
2024/01/03 00:22:10;;;;;;;11.23;2.38;;;;;;;;;;5045525;28;20078;-63
2024/01/03 00:24:42;;;;;;;14.55;3.35;;;;;;;;;;5046305;28;20057;-63
2024/01/03 00:27:08;;;;;;;7.90;1.83;;;;;;;;;;5045035;28;20041;-64
2024/01/03 00:29:47;;;;;;;9.90;2.42;;;;;;;;;;5045440;28;20037;-63
2024/01/03 00:32:13;;;;;;;6.72;2.08;;;;;;;;;;5074089;28;20668;-63
2024/01/03 00:34:40;;;;;;;7.95;1.80;;;;;;;;;;5042408;28;20033;-64
2024/01/03 00:37:23;;;;;;;8.52;2.08;;;;;;;;;;5042638;28;20049;-64
2024/01/03 00:39:49;;;;;;;7.72;1.30;;;;;;;;;;5044271;28;20179;-63
2024/01/03 00:42:16;;;;;;;6.40;1.88;;;;;;;;;;5044901;28;20041;-64
2024/01/03 00:44:42;;;;;;;13.35;2.42;;;;;;;;;;5044962;28;20511;-64
2024/01/03 00:47:09;;;;;;;11.50;2.30;;;;;;;;;;5044344;28;20569;-63
2024/01/03 00:49:35;;;;;;;9.95;2.53;;;;;;;;;;5045835;28;20038;-63
2024/01/03 00:52:02;;;;;;;10.23;1.92;;;;;;;;;;5042101;28;20854;-64
2024/01/03 00:54:30;;;;;;;11.23;2.25;;;;;;;;;;5045566;28;20037;-63
2024/01/03 00:56:56;;;;;;;10.82;2.38;;;;;;;;;;5039213;28;20033;-64
2024/01/03 00:59:22;;;;;;;9.30;2.33;;;;;;;;;;5044618;28;20063;-64
2024/01/03 01:01:48;;;;;;;14.10;2.83;;;;;;;;;;5043347;28;20053;-63
2024/01/03 01:04:15;;;;;;;12.20;3.17;;;;;;;;;;5044936;28;20080;-63
2024/01/03 01:06:42;;;;;;;13.73;2.80;;;;;;;;;;5044029;28;20044;-63
2024/01/03 01:09:08;;;;;;;12.63;2.53;;;;;;;;;;5045134;28;20128;-63
2024/01/03 01:11:35;;;;;;;12.93;2.30;;;;;;;;;;5041202;28;20051;-63
2024/01/03 01:14:01;;;;;;;11.32;2.03;;;;;;;;;;5044574;28;20132;-63
2024/01/03 01:16:27;;;;;;;15.38;2.92;;;;;;;;;;5045251;28;20047;-63
2024/01/03 01:18:53;;;;;;;15.48;3.30;;;;;;;;;;5043815;28;20041;-63
2024/01/03 01:21:19;;;;;;;10.80;1.90;;;;;;;;;;5044755;28;20171;-63
2024/01/03 01:23:45;;;;;;;9.68;2.10;;;;;;;;;;5042720;28;20048;-63
2024/01/03 01:26:11;;;;;;;9.95;2.80;;;;;;;;;;5042767;28;20774;-63
2024/01/03 01:28:37;;;;;;;13.18;2.97;;;;;;;;;;5044358;28;20119;-62
2024/01/03 01:31:03;;;;;;;17.48;3.22;;;;;;;;;;5044011;28;20789;-62
2024/01/03 01:33:29;;;;;;;20.60;4.32;;;;;;;;;;5043580;28;20040;-63
2024/01/03 01:35:55;;;;;;;13.88;3.05;;;;;;;;;;5042130;28;20093;-63
2024/01/03 01:38:21;;;;;;;8.13;2.05;;;;;;;;;;5041194;28;20538;-63
2024/01/03 01:40:49;;;;;;;16.92;3.67;;;;;;;;;;5043244;28;20029;-63
2024/01/03 01:43:16;;;;;;;9.68;2.70;;;;;;;;;;5044152;28;20033;-63
2024/01/03 01:45:42;;;;;;;17.95;3.38;;;;;;;;;;5044547;28;20091;-63
2024/01/03 01:48:10;;;;;;;16.02;2.97;;;;;;;;;;5043859;28;21833;-63
2024/01/03 01:50:39;;;;;;;18.25;2.92;;;;;;;;;;5043383;28;20052;-63
2024/01/03 01:53:06;;;;;;;12.77;2.92;;;;;;;;;;5041673;28;20056;-64
2024/01/03 01:55:32;;;;;;;12.95;2.45;;;;;;;;;;5042356;28;20036;-64
2024/01/03 01:57:58;;;;;;;19.45;3.22;;;;;;;;;;5042984;28;20037;-64
2024/01/03 02:00:24;;;;;;;12.00;2.58;;;;;;;;;;5040847;28;20122;-64
2024/01/03 02:02:51;;;;;;;14.35;2.80;;;;;;;;;;5041466;28;20041;-64
2024/01/03 02:05:18;;;;;;;14.38;2.20;;;;;;;;;;5044071;28;20041;-63
2024/01/03 02:07:44;;;;;;;15.90;2.55;;;;;;;;;;5042298;28;20052;-63
2024/01/03 02:10:10;;;;;;;14.75;2.38;;;;;;;;;;5042570;28;20547;-64
2024/01/03 02:12:37;;;;;;;7.30;1.95;;;;;;;;;;5043929;28;20060;-63
2024/01/03 02:15:04;;;;;;;9.60;2.22;;;;;;;;;;5042925;28;20071;-64
2024/01/03 02:17:30;;;;;;;9.55;2.78;;;;;;;;;;5042563;28;20389;-63
2024/01/03 02:20:00;;;;;;;11.07;2.10;;;;;;;;;;5043339;28;20144;-63
2024/01/03 02:22:28;;;;;;;14.52;3.70;;;;;;;;;;5040448;28;20072;-63
2024/01/03 02:24:54;;;;;;;16.10;2.75;;;;;;;;;;5043526;28;20045;-64
2024/01/03 02:27:20;;;;;;;11.07;2.42;;;;;;;;;;5043844;28;20109;-63
2024/01/03 02:29:46;;;;;;;11.45;2.67;;;;;;;;;;5039657;28;20040;-63
2024/01/03 02:32:11;;;;;;;11.77;2.53;;;;;;;;;;5044995;28;20072;-64
2024/01/03 02:34:38;;;;;;;8.48;2.85;;;;;;;;;;5045433;28;20036;-64
2024/01/03 02:37:05;;;;;;;10.25;2.65;;;;;;;;;;5043947;28;20123;-64
2024/01/03 02:39:31;;;;;;;13.07;2.13;;;;;;;;;;5043138;28;20071;-64
2024/01/03 02:41:57;;;;;;;10.73;2.03;;;;;;;;;;5044100;28;20775;-63
2024/01/03 02:44:27;;;;;;;9.55;2.25;;;;;;;;;;5043664;28;20517;-63
2024/01/03 02:46:53;;;;;;;5.60;1.98;;;;;;;;;;5043019;28;20136;-63
2024/01/03 02:49:19;;;;;;;11.82;3.13;;;;;;;;;;5044498;28;20029;-61
2024/01/03 02:51:45;;;;;;;5.82;2.08;;;;;;;;;;5042829;28;20060;-61
2024/01/03 02:54:11;;;;;;;13.35;3.08;;;;;;;;;;5044315;28;20124;-61
2024/01/03 02:56:40;;;;;;;16.42;3.20;;;;;;;;;;5044829;28;20051;-63
2024/01/03 02:59:07;;;;;;;7.68;2.00;;;;;;;;;;5041337;28;20037;-63
2024/01/03 03:01:33;;;;;;;8.63;2.15;;;;;;;;;;5042599;28;20492;-63
2024/01/03 03:03:59;;;;;;;12.40;2.53;;;;;;;;;;5042599;28;20458;-63
2024/01/03 03:06:25;;;;;;;6.63;1.63;;;;;;;;;;5043826;28;20114;-63
2024/01/03 03:08:51;;;;;;;11.57;2.55;;;;;;;;;;5043905;28;20071;-63
2024/01/03 03:11:17;;;;;;;6.93;1.92;;;;;;;;;;5041667;28;20116;-63
2024/01/03 03:13:43;;;;;;;12.38;2.13;;;;;;;;;;5046764;28;20052;-63
2024/01/03 03:16:09;;;;;;;10.02;2.20;;;;;;;;;;5047982;28;20043;-61
2024/01/03 03:18:35;;;;;;;12.20;1.95;;;;;;;;;;5044127;28;20033;-61
2024/01/03 03:21:01;;;;;;;9.93;1.75;;;;;;;;;;5046893;28;20041;-61
2024/01/03 03:23:27;;;;;;;10.43;1.90;;;;;;;;;;5047018;28;20040;-62
2024/01/03 03:25:53;;;;;;;10.98;1.98;;;;;;;;;;5045879;28;20727;-64
2024/01/03 03:28:20;;;;;;;7.75;1.55;;;;;;;;;;5047935;28;20041;-61
2024/01/03 03:30:46;;;;;;;8.75;2.25;;;;;;;;;;5046901;28;20636;-61
2024/01/03 03:33:12;;;;;;;6.80;1.50;;;;;;;;;;5047340;28;20056;-61
2024/01/03 03:35:38;;;;;;;7.32;2.08;;;;;;;;;;5048394;28;20041;-61
2024/01/03 03:38:04;;;;;;;7.35;1.50;;;;;;;;;;5047332;28;20095;-61
2024/01/03 03:40:30;;;;;;;8.98;2.65;;;;;;;;;;5047057;28;20447;-61
2024/01/03 03:42:56;;;;;;;8.52;2.05;;;;;;;;;;5047566;28;20036;-61
2024/01/03 03:45:22;;;;;;;9.90;1.83;;;;;;;;;;5046919;28;20045;-62
2024/01/03 03:47:48;;;;;;;8.13;2.08;;;;;;;;;;5046083;28;20048;-62
2024/01/03 03:50:14;;;;;;;10.75;2.03;;;;;;;;;;5047623;28;20044;-61
2024/01/03 03:52:40;;;;;;;4.57;1.55;;;;;;;;;;5048316;28;20073;-61
2024/01/03 03:55:07;;;;;;;7.13;1.58;;;;;;;;;;5046681;28;20075;-61
2024/01/03 03:57:33;;;;;;;7.80;1.73;;;;;;;;;;5047986;28;20045;-61
2024/01/03 03:59:59;;;;;;;4.80;1.50;;;;;;;;;;5047436;28;20045;-61
2024/01/03 04:02:24;;;;;;;6.28;1.60;;;;;;;;;;5046821;28;20055;-61
2024/01/03 04:04:51;;;;;;;4.78;1.80;;;;;;;;;;5047659;28;20083;-61
2024/01/03 04:07:17;;;;;;;10.55;1.75;;;;;;;;;;5045387;28;20072;-62
2024/01/03 04:09:44;;;;;;;6.95;1.70;;;;;;;;;;5047708;28;20043;-61
2024/01/03 04:12:10;;;;;;;7.60;1.92;;;;;;;;;;5047555;28;20040;-61
2024/01/03 04:14:37;;;;;;;9.00;1.95;;;;;;;;;;5045480;28;20041;-61
2024/01/03 04:17:03;;;;;;;9.23;1.95;;;;;;;;;;5046746;28;20735;-61
2024/01/03 04:19:30;;;;;;;4.93;1.05;;;;;;;;;;5047415;28;20087;-61
2024/01/03 04:21:57;;;;;;;6.65;1.42;;;;;;;;;;5046036;28;20037;-61
2024/01/03 04:24:23;;;;;;;7.05;1.13;;;;;;;;;;5045293;28;20386;-61
2024/01/03 04:26:48;;;;;;;7.72;1.33;;;;;;;;;;5047034;28;20098;-61
2024/01/03 04:29:14;;;;;;;5.30;1.20;;;;;;;;;;5046180;28;20072;-61
2024/01/03 04:31:41;;;;;;;11.27;1.52;;;;;;;;;;5047514;28;20040;-61
2024/01/03 04:34:07;;;;;;;7.43;1.60;;;;;;;;;;5036975;28;20041;-61
2024/01/03 04:36:33;;;;;;;7.15;1.92;;;;;;;;;;5046080;28;20048;-61
2024/01/03 04:38:59;;;;;;;6.57;1.88;;;;;;;;;;5046734;28;20399;-61
2024/01/03 04:41:25;;;;;;;6.82;1.88;;;;;;;;;;5046426;28;20065;-61
2024/01/03 04:43:51;;;;;;;5.10;1.23;;;;;;;;;;5046580;28;20033;-62
2024/01/03 04:46:17;;;;;;;5.93;1.33;;;;;;;;;;5046610;28;20063;-62
2024/01/03 04:48:43;;;;;;;2.83;1.42;;;;;;;;;;5046751;28;20547;-62
2024/01/03 04:51:09;;;;;;;3.28;1.20;;;;;;;;;;5045850;28;20044;-62
2024/01/03 04:53:35;;;;;;;3.80;0.93;;;;;;;;;;5046704;28;20044;-62
2024/01/03 04:56:01;;;;;;;7.78;1.27;;;;;;;;;;5042871;28;20033;-62
2024/01/03 04:58:27;;;;;;;7.85;1.65;;;;;;;;;;5045930;28;20187;-61
2024/01/03 05:00:53;;;;;;;4.75;1.30;;;;;;;;;;5046382;28;20404;-61
2024/01/03 05:03:20;;;;;;;9.50;1.85;;;;;;;;;;5045991;28;20041;-61
2024/01/03 05:05:46;;;;;;;5.68;1.80;;;;;;;;;;5043842;28;20729;-62
2024/01/03 05:08:12;;;;;;;10.20;2.08;;;;;;;;;;5044850;28;20059;-62
2024/01/03 05:10:38;;;;;;;4.80;1.58;;;;;;;;;;5046258;28;20041;-61
2024/01/03 05:13:04;;;;;;;5.03;1.65;;;;;;;;;;5046284;28;20037;-62
2024/01/03 05:15:30;;;;;;;6.45;1.88;;;;;;;;;;5046260;28;20041;-61
2024/01/03 05:17:56;;;;;;;8.70;1.88;;;;;;;;;;5044993;28;20421;-62
2024/01/03 05:20:22;;;;;;;8.82;1.88;;;;;;;;;;5045785;28;20098;-62
2024/01/03 05:22:48;;;;;;;6.22;2.22;;;;;;;;;;5044381;28;20128;-62
2024/01/03 05:25:14;;;;;;;9.57;1.63;;;;;;;;;;5045017;28;20043;-61
2024/01/03 05:27:40;;;;;;;6.95;2.00;;;;;;;;;;5046961;28;20094;-61
2024/01/03 05:30:06;;;;;;;8.05;1.02;;;;;;;;;;5046018;28;20048;-61
2024/01/03 05:32:32;;;;;;;5.07;1.20;;;;;;;;;;5045686;28;20040;-61
2024/01/03 05:34:58;;;;;;;8.13;1.65;;;;;;;;;;5044899;28;20044;-61
2024/01/03 05:37:24;;;;;;;5.88;2.08;;;;;;;;;;5046091;28;20068;-61
2024/01/03 05:39:50;;;;;;;3.28;1.13;;;;;;;;;;5045043;28;20072;-62
2024/01/03 05:42:16;;;;;;;5.45;1.15;;;;;;;;;;5045484;28;20037;-62
2024/01/03 05:44:42;;;;;;;6.20;1.00;;;;;;;;;;5043296;28;20033;-61
2024/01/03 05:47:09;;;;;;;4.15;1.02;;;;;;;;;;5043180;28;20733;-61
2024/01/03 05:49:35;;;;;;;3.67;1.00;;;;;;;;;;5043828;28;20068;-61
2024/01/03 05:52:01;;;;;;;3.72;1.35;;;;;;;;;;5044179;28;20045;-61
2024/01/03 05:54:28;;;;;;;2.95;0.93;;;;;;;;;;5043813;28;20123;-61
2024/01/03 05:56:54;;;;;;;3.10;0.80;;;;;;;;;;5045284;28;20080;-61
2024/01/03 05:59:20;;;;;;;3.22;1.30;;;;;;;;;;5045231;28;20116;-61
2024/01/03 06:01:46;;;;;;;2.20;1.00;;;;;;;;;;5043153;28;20541;-61
2024/01/03 06:04:13;;;;;;;5.05;1.48;;;;;;;;;;5045276;28;20053;-61
2024/01/03 06:06:39;;;;;;;7.63;1.70;;;;;;;;;;5043567;28;20246;-61
2024/01/03 06:09:05;;;;;;;6.03;2.72;;;;;;;;;;5042712;28;20044;-61
2024/01/03 06:11:31;;;;;;;10.90;3.00;;;;;;;;;;5044885;28;20044;-61
2024/01/03 06:13:57;;;;;;;21.67;4.53;;;;;;;;;;5044187;28;20080;-61
2024/01/03 06:16:23;;;;;;;17.90;4.50;;;;;;;;;;5045212;28;20700;-61
2024/01/03 06:18:49;;;;;;;21.27;4.70;;;;;;;;;;5044677;28;20036;-61
2024/01/03 06:21:15;;;;;;;13.77;3.63;;;;;;;;;;5044094;28;20156;-61
2024/01/03 06:23:41;;;;;;;15.15;3.45;;;;;;;;;;5045530;28;20036;-61
2024/01/03 06:26:07;;;;;;;16.85;3.00;;;;;;;;;;5044458;28;20051;-61
2024/01/03 06:28:33;;;;;;;14.82;4.25;;;;;;;;;;5042705;28;20753;-62
2024/01/03 06:31:02;;;;;;;9.30;3.15;;;;;;;;;;5044263;28;20037;-62
2024/01/03 06:33:28;;;;;;;15.57;4.10;;;;;;;;;;5043957;28;20045;-62
2024/01/03 06:35:54;;;;;;;13.27;3.80;;;;;;;;;;5041746;28;20106;-62
2024/01/03 06:38:20;;;;;;;15.45;3.38;;;;;;;;;;5043375;28;20448;-62
2024/01/03 06:40:46;;;;;;;13.90;3.05;;;;;;;;;;5044725;28;20649;-62
2024/01/03 06:43:12;;;;;;;12.30;3.17;;;;;;;;;;5044047;28;20067;-61
2024/01/03 06:45:38;;;;;;;15.93;4.65;;;;;;;;;;5044539;28;20029;-61
2024/01/03 06:48:04;;;;;;;15.75;3.92;;;;;;;;;;5042794;28;20456;-61
2024/01/03 06:50:30;;;;;;;13.73;3.40;;;;;;;;;;5043555;28;20053;-61
2024/01/03 06:52:56;;;;;;;16.13;3.38;;;;;;;;;;5042739;28;20060;-61
2024/01/03 06:55:22;;;;;;;18.83;4.00;;;;;;;;;;5043172;28;20059;-61
2024/01/03 06:57:49;;;;;;;16.63;3.38;;;;;;;;;;5043729;28;20045;-61
2024/01/03 07:00:15;;;;;;;17.92;4.30;;;;;;;;;;5044055;28;20044;-61
2024/01/03 07:02:41;;;;;;;15.43;2.65;;;;;;;;;;5045074;28;20714;-61
2024/01/03 07:05:07;;;;;;;14.45;2.92;;;;;;;;;;5041989;28;20040;-62
2024/01/03 07:07:33;;;;;;;14.82;3.15;;;;;;;;;;5043007;28;20490;-62
2024/01/03 07:09:59;;;;;;;20.48;4.28;;;;;;;;;;5044349;28;20095;-62
2024/01/03 07:12:25;;;;;;;17.45;3.90;;;;;;;;;;5043968;28;20037;-62
2024/01/03 07:14:51;;;;;;;17.92;4.07;;;;;;;;;;5044195;28;20037;-61
2024/01/03 07:17:17;;;;;;;16.38;4.40;;;;;;;;;;5043518;28;20069;-61
2024/01/03 07:19:43;;;;;;;12.13;3.08;;;;;;;;;;5045383;28;20124;-61
2024/01/03 07:22:09;;;;;;;15.55;3.72;;;;;;;;;;5042740;28;20399;-62
2024/01/03 07:24:36;;;;;;;14.13;3.95;;;;;;;;;;5043701;28;20051;-62
2024/01/03 07:27:03;;;;;;;18.27;3.28;;;;;;;;;;5043716;28;20048;-61
2024/01/03 07:29:29;;;;;;;13.98;2.58;;;;;;;;;;5044044;28;20065;-61
2024/01/03 07:31:55;;;;;;;17.25;3.78;;;;;;;;;;5043424;28;20634;-61
2024/01/03 07:34:21;;;;;;;13.68;3.35;;;;;;;;;;5042782;28;20048;-61
2024/01/03 07:36:47;;;;;;;16.55;3.13;;;;;;;;;;5044027;28;20056;-61
2024/01/03 07:39:13;;;;;;;12.20;2.78;;;;;;;;;;5042061;28;20132;-61
2024/01/03 07:41:39;;;;;;;10.63;3.10;;;;;;;;;;5044090;28;20037;-61
2024/01/03 07:44:05;;;;;;;19.00;3.65;;;;;;;;;;5040727;28;20690;-61
2024/01/03 07:46:31;;;;;;;21.52;4.13;;;;;;;;;;5043426;28;20045;-61
2024/01/03 07:48:57;;;;;;;16.90;3.35;;;;;;;;;;5040654;28;20055;-61
2024/01/03 07:51:23;;;;;;;12.68;3.15;;;;;;;;;;5043780;28;20049;-61
2024/01/03 07:53:49;;;;;;;11.00;2.50;;;;;;;;;;5043673;28;20112;-61
2024/01/03 07:56:15;;;;;;;11.85;2.70;;;;;;;;;;5042980;28;20037;-62
2024/01/03 07:58:41;;;;;;;14.05;3.05;;;;;;;;;;5045681;28;20771;-62
2024/01/03 08:01:07;;;;;;;11.73;2.10;;;;;;;;;;5043554;28;20045;-62
2024/01/03 08:03:33;;;;;;;14.55;3.70;;;;;;;;;;5045955;28;20060;-62
2024/01/03 08:05:59;;;;;;;11.60;2.78;;;;;;;;;;5047139;28;20045;-61
2024/01/03 08:08:25;;;;;;;13.10;2.67;;;;;;;;;;5046981;28;20045;-61
2024/01/03 08:10:51;;;;;;;11.57;2.20;;;;;;;;;;5047584;28;20451;-62
2024/01/03 08:13:17;;;;;;;13.05;2.75;;;;;;;;;;5046184;28;20131;-62
2024/01/03 08:15:43;;;;;;;13.00;2.90;;;;;;;;;;5046427;28;20041;-61
2024/01/03 08:18:09;;;;;;;17.23;2.92;;;;;;;;;;5046374;28;20043;-61
2024/01/03 08:20:35;;;;;;;13.52;3.33;;;;;;;;;;5045941;28;20757;-61
2024/01/03 08:23:01;;;;;;;13.18;3.13;;;;;;;;;;5044571;28;20044;-61
2024/01/03 08:25:27;;;;;;;18.23;3.97;;;;;;;;;;5048781;28;20584;-62
2024/01/03 08:27:53;;;;;;;20.25;3.42;;;;;;;;;;5047733;28;20124;-62
2024/01/03 08:30:19;;;;;;;13.05;4.15;;;;;;;;;;5048733;28;20060;-59
2024/01/03 08:32:45;;;;;;;20.50;4.65;;;;;;;;;;5037784;28;20040;-58
2024/01/03 08:35:11;;;;;;;17.83;4.35;;;;;;;;;;5044018;28;20037;-58
2024/01/03 08:37:37;;;;;;;14.55;3.47;;;;;;;;;;5044850;28;20056;-61
2024/01/03 08:40:03;;;;;;;17.38;3.03;;;;;;;;;;5037408;28;20036;-60
2024/01/03 08:42:29;;;;;;;9.30;2.10;;;;;;;;;;5042835;28;20561;-60
2024/01/03 08:44:55;;;;;;;9.52;2.35;;;;;;;;;;5044301;28;20152;-61
2024/01/03 08:47:21;;;;;;;10.65;2.55;;;;;;;;;;5047407;28;20056;-61
2024/01/03 08:49:47;;;;;;;7.53;2.50;;;;;;;;;;5046510;28;20045;-61
2024/01/03 08:52:13;;;;;;;7.72;2.15;;;;;;;;;;5047054;28;20059;-55
2024/01/03 08:54:41;;;;;;;5.35;1.73;;;;;;;;;;5047133;28;20489;-61
2024/01/03 08:57:09;;;;;;;5.63;1.58;;;;;;;;;;5045247;28;20040;-61
2024/01/03 08:59:35;;;;;;;11.45;3.00;;;;;;;;;;5045019;28;20603;-60
2024/01/03 09:02:01;;;;;;;9.30;1.88;;;;;;;;;;5047788;28;20039;-60
2024/01/03 09:04:27;;;;;;;6.65;2.47;;;;;;;;;;5051653;28;20048;-60
2024/01/03 09:06:53;;;;;;;10.90;2.63;;;;;;;;;;5056124;28;20041;-61
2024/01/03 09:09:19;;;;;;;11.15;2.83;;;;;;;;;;5053624;28;20037;-61
2024/01/03 09:11:45;;;;;;;12.98;2.38;;;;;;;;;;5048529;28;20040;-61
2024/01/03 09:14:13;;;;;;;18.85;3.75;;;;;;;;;;5052997;28;20035;-61
2024/01/03 09:16:39;;;;;;;14.88;3.00;;;;;;;;;;5053078;28;20244;-61
2024/01/03 09:19:05;;;;;;;15.93;3.53;;;;;;;;;;5054041;28;20037;-61
2024/01/03 09:21:32;;;;;;;16.55;3.78;;;;;;;;;;5045553;28;20036;-62
2024/01/03 09:23:58;;;;;;;9.45;2.47;;;;;;;;;;5046567;28;20037;-62
2024/01/03 09:26:24;;;;;;;9.13;2.75;;;;;;;;;;5046637;28;20044;-62
2024/01/03 09:28:51;;;;;;;14.57;3.17;;;;;;;;;;5044371;28;20047;-61
2024/01/03 09:31:17;;;;;;;15.27;2.90;;;;;;;;;;5076519;28;20485;-62
2024/01/03 09:33:43;;;;;;;8.95;3.05;;;;;;;;;;5045489;28;20103;-62
2024/01/03 09:36:19;;;;;;;12.95;2.60;;;;;;;;;;5044245;28;20481;-62
2024/01/03 09:38:46;;;;;;;5.53;1.92;;;;;;;;;;5042728;28;20528;-62
2024/01/03 09:41:12;;;;;;;10.02;2.47;;;;;;;;;;5045695;28;20037;-62
2024/01/03 09:43:47;;;;;;;8.07;2.17;;;;;;;;;;5036352;28;20045;-61
2024/01/03 09:46:13;;;;;;;6.20;1.83;;;;;;;;;;5045414;28;20490;-62
2024/01/03 09:48:40;;;;;;;4.55;1.90;;;;;;;;;;5045314;28;20120;-62
2024/01/03 09:51:07;;;;;;;14.45;2.55;;;;;;;;;;5040779;28;20103;-62
2024/01/03 09:53:33;;;;;;;10.02;2.00;;;;;;;;;;5042325;28;20044;-62
2024/01/03 09:56:00;;;;;;;12.55;2.45;;;;;;;;;;5044161;28;20031;-62
2024/01/03 09:58:27;;;;;;;7.43;1.98;;;;;;;;;;5039056;28;20128;-62
2024/01/03 10:00:53;;;;;;;8.55;1.92;;;;;;;;;;5040742;28;20037;-62
2024/01/03 10:03:19;;;;;;;11.82;2.03;;;;;;;;;;5043365;28;20037;-62
2024/01/03 10:05:45;;;;;;;7.07;1.48;;;;;;;;;;5043973;28;20036;-61
2024/01/03 10:08:15;;;;;;;7.72;2.28;;;;;;;;;;5043097;28;20497;-61
2024/01/03 10:10:41;;;;;;;6.80;1.33;;;;;;;;;;5044993;28;20029;-62
2024/01/03 10:13:14;;;;;;;9.13;1.83;;;;;;;;;;5043509;28;20062;-62
2024/01/03 10:15:40;;;;;;;6.65;1.80;;;;;;;;;;5043320;28;20080;-62
2024/01/03 10:18:07;;;;;;;7.75;1.90;;;;;;;;;;5043805;28;20600;-61
2024/01/03 10:20:34;;;;;;;7.93;1.75;;;;;;;;;;5044592;28;20512;-61
2024/01/03 10:23:04;;;;;;;11.95;2.35;;;;;;;;;;5043593;28;20040;-61
2024/01/03 10:25:30;;;;;;;10.95;2.38;;;;;;;;;;5043813;28;20442;-61
2024/01/03 10:28:01;;;;;;;7.53;2.83;;;;;;;;;;5043187;28;20105;-61
2024/01/03 10:30:27;;;;;;;10.00;2.50;;;;;;;;;;5042456;28;20065;-61
2024/01/03 10:33:03;;;;;;;11.80;2.10;;;;;;;;;;5043554;28;20041;-61
2024/01/03 10:35:33;;;;;;;8.70;1.77;;;;;;;;;;5044555;28;20504;-59
2024/01/03 10:37:59;;;;;;;7.45;1.48;;;;;;;;;;5028334;28;20048;-62
2024/01/03 10:40:29;;;;;;;4.82;1.38;;;;;;;;;;5045232;28;20045;-63
2024/01/03 10:42:56;;;;;;;2.65;1.23;;;;;;;;;;5043840;28;20076;-63
2024/01/03 10:45:22;;;;;;;10.65;2.05;;;;;;;;;;5045185;28;20536;-63
2024/01/03 10:47:49;;;;;;;3.60;1.58;;;;;;;;;;5046484;28;20051;-63
2024/01/03 10:50:15;;;;;;;6.90;1.58;;;;;;;;;;5044506;28;20051;-63
2024/01/03 10:52:44;;;;;;;6.68;1.60;;;;;;;;;;5042682;28;20052;-63
2024/01/03 10:55:11;;;;;;;5.10;0.93;;;;;;;;;;5044858;28;20453;-63
2024/01/03 10:57:40;;;;;;;7.63;1.42;;;;;;;;;;5041050;28;20067;-63
2024/01/03 11:00:13;;;;;;;8.40;1.88;;;;;;;;;;5046014;28;20068;-63
2024/01/03 11:02:46;;;;;;;8.70;1.48;;;;;;;;;;5043226;28;20448;-63
2024/01/03 11:05:15;;;;;;;12.77;2.45;;;;;;;;;;5042464;28;20573;-63
2024/01/03 11:07:47;;;;;;;9.40;2.35;;;;;;;;;;5038759;28;20084;-63
2024/01/03 11:10:33;;;;;;;21.65;3.17;;;;;;;;;;5045201;28;20037;-63
2024/01/03 11:13:00;;;;;;;13.45;3.00;;;;;;;;;;5038564;28;20059;-63
2024/01/03 11:15:26;;;;;;;9.70;2.05;;;;;;;;;;5046035;28;20477;-63
2024/01/03 11:17:51;;;;;;;15.88;3.35;;;;;;;;;;5045168;28;20042;-63
2024/01/03 11:20:28;;;;;;;9.20;2.40;;;;;;;;;;5043777;28;20037;-63
2024/01/03 11:23:02;;;;;;;11.43;1.90;;;;;;;;;;5037573;28;20060;-63
2024/01/03 11:25:47;;;;;;;12.30;2.78;;;;;;;;;;5037202;28;20057;-63
2024/01/03 11:28:31;;;;;;;12.27;2.60;;;;;;;;;;5046356;28;20133;-63
2024/01/03 11:30:58;;;;;;;9.90;2.20;;;;;;;;;;5045243;28;20390;-63
2024/01/03 11:33:38;;;;;;;12.68;2.70;;;;;;;;;;5041498;28;20041;-63
2024/01/03 11:36:05;;;;;;;10.70;2.53;;;;;;;;;;5047734;28;20527;-63
2024/01/03 11:38:38;;;;;;;20.83;3.92;;;;;;;;;;5044043;28;20037;-63
2024/01/03 11:41:04;;;;;;;10.15;2.30;;;;;;;;;;5047823;28;20045;-63
2024/01/03 11:43:30;;;;;;;11.07;2.72;;;;;;;;;;5047815;28;20036;-63
2024/01/03 11:46:06;;;;;;;9.98;2.33;;;;;;;;;;5045912;28;20409;-63
2024/01/03 11:48:32;;;;;;;13.75;3.53;;;;;;;;;;5044148;28;20052;-63
2024/01/03 11:50:58;;;;;;;10.10;2.85;;;;;;;;;;5049193;28;20056;-63
2024/01/03 11:53:24;;;;;;;8.45;2.20;;;;;;;;;;5046724;28;20059;-63
2024/01/03 11:55:51;;;;;;;7.43;1.65;;;;;;;;;;5042601;28;20094;-63
2024/01/03 11:58:17;;;;;;;7.47;1.60;;;;;;;;;;5045623;28;20049;-63
2024/01/03 12:00:43;;;;;;;10.27;1.90;;;;;;;;;;5050202;28;20056;-62
2024/01/03 12:03:09;;;;;;;8.48;1.27;;;;;;;;;;5050867;28;20037;-63
2024/01/03 12:05:45;;;;;;;5.75;1.33;;;;;;;;;;5049711;28;20045;-63
2024/01/03 12:08:13;;;;;;;7.57;2.17;;;;;;;;;;5049048;28;20076;-63
2024/01/03 12:10:41;;;;;;;7.93;1.50;;;;;;;;;;5048845;28;20037;-63
2024/01/03 12:13:07;;;;;;;6.38;1.90;;;;;;;;;;5048300;28;20041;-62
2024/01/03 12:15:33;;;;;;;9.15;2.05;;;;;;;;;;5049029;28;20036;-62
2024/01/03 12:18:06;;;;;;;5.18;1.77;;;;;;;;;;5048025;28;20037;-62
2024/01/03 12:20:33;;;;;;;7.72;2.17;;;;;;;;;;5048251;28;20045;-63
2024/01/03 12:23:09;;;;;;;7.47;2.22;;;;;;;;;;5048758;28;20537;-62
2024/01/03 12:25:35;;;;;;;12.43;2.58;;;;;;;;;;5041580;28;20041;-63
2024/01/03 12:28:01;;;;;;;13.80;2.15;;;;;;;;;;5041425;28;20083;-63
2024/01/03 12:30:27;;;;;;;9.73;2.03;;;;;;;;;;5047418;28;20041;-63
2024/01/03 12:33:06;;;;;;;9.45;2.30;;;;;;;;;;5047061;28;20393;-63
2024/01/03 12:35:33;;;;;;;9.90;1.85;;;;;;;;;;5046785;28;20049;-63
2024/01/03 12:37:59;;;;;;;9.80;2.47;;;;;;;;;;5046142;28;20515;-63
2024/01/03 12:40:25;;;;;;;8.77;1.90;;;;;;;;;;5037942;28;20041;-63
2024/01/03 12:42:50;;;;;;;10.80;3.08;;;;;;;;;;5046838;28;20548;-63
2024/01/03 12:45:17;;;;;;;5.75;2.47;;;;;;;;;;5047944;28;20079;-63
2024/01/03 12:47:42;;;;;;;4.95;1.88;;;;;;;;;;5046866;28;20072;-63
2024/01/03 12:50:09;;;;;;;11.02;2.03;;;;;;;;;;5043391;28;20472;-63
2024/01/03 12:52:35;;;;;;;8.55;2.58;;;;;;;;;;5044938;28;20072;-63
2024/01/03 12:55:03;;;;;;;5.47;1.85;;;;;;;;;;5044984;28;20059;-63
2024/01/03 12:57:29;;;;;;;5.75;1.80;;;;;;;;;;5047481;28;20049;-63
2024/01/03 12:59:55;;;;;;;8.23;1.63;;;;;;;;;;5046529;28;20111;-63
2024/01/03 13:02:21;;;;;;;5.82;1.80;;;;;;;;;;5046232;28;20370;-63
2024/01/03 13:04:47;;;;;;;10.02;2.08;;;;;;;;;;5046014;28;20237;-63
2024/01/03 13:07:14;;;;;;;5.80;1.50;;;;;;;;;;5044395;28;20049;-63
2024/01/03 13:09:40;;;;;;;8.13;1.90;;;;;;;;;;5044170;28;20038;-63
2024/01/03 13:12:07;;;;;;;6.97;1.60;;;;;;;;;;5044241;28;20461;-63
2024/01/03 13:14:33;;;;;;;4.85;1.10;;;;;;;;;;5047883;28;20512;-64
2024/01/03 13:16:59;;;;;;;5.30;1.83;;;;;;;;;;5047375;28;20451;-64
2024/01/03 13:19:25;;;;;;;4.95;1.40;;;;;;;;;;5047834;28;20041;-64
2024/01/03 13:21:51;;;;;;;6.13;1.65;;;;;;;;;;5047562;28;20106;-64
2024/01/03 13:24:17;;;;;;;8.30;1.70;;;;;;;;;;5045655;28;20085;-63
2024/01/03 13:26:43;;;;;;;3.38;1.48;;;;;;;;;;5048307;28;20044;-64
2024/01/03 13:29:09;;;;;;;10.93;1.50;;;;;;;;;;5047668;28;20049;-64
2024/01/03 13:31:35;;;;;;;6.75;1.08;;;;;;;;;;5047041;28;20045;-64
2024/01/03 13:34:01;;;;;;;5.25;1.10;;;;;;;;;;5046206;28;20497;-64
2024/01/03 13:36:27;;;;;;;4.22;1.42;;;;;;;;;;5046369;28;20060;-63
2024/01/03 13:38:53;;;;;;;3.03;1.27;;;;;;;;;;5047035;28;20033;-63
2024/01/03 13:41:19;;;;;;;3.47;0.95;;;;;;;;;;5047439;28;20060;-64
2024/01/03 13:43:45;;;;;;;5.03;1.30;;;;;;;;;;5046355;28;20116;-64
2024/01/03 13:46:13;;;;;;;4.05;1.42;;;;;;;;;;5046829;28;20454;-64
2024/01/03 13:48:39;;;;;;;5.78;1.88;;;;;;;;;;5047408;28;20120;-64
2024/01/03 13:51:05;;;;;;;8.65;2.30;;;;;;;;;;5045360;28;20087;-63
2024/01/03 13:53:31;;;;;;;11.65;2.20;;;;;;;;;;5047404;28;20033;-63
2024/01/03 13:55:59;;;;;;;7.10;2.13;;;;;;;;;;5046659;28;20033;-63
2024/01/03 13:58:25;;;;;;;5.43;1.70;;;;;;;;;;5046416;28;20056;-64
2024/01/03 14:00:52;;;;;;;4.68;1.35;;;;;;;;;;5046956;28;20473;-64
2024/01/03 14:03:18;;;;;;;6.28;1.45;;;;;;;;;;5045826;28;20059;-64
2024/01/03 14:05:44;;;;;;;8.95;2.72;;;;;;;;;;5046970;28;20041;-64
2024/01/03 14:08:11;;;;;;;8.43;2.10;;;;;;;;;;5046900;28;20045;-64
2024/01/03 14:10:37;;;;;;;6.68;2.35;;;;;;;;;;5046942;28;20120;-64
2024/01/03 14:13:03;;;;;;;5.82;1.80;;;;;;;;;;5046220;28;20087;-64
2024/01/03 14:15:29;;;;;;;5.57;1.75;;;;;;;;;;5046880;28;20041;-64
2024/01/03 14:17:55;;;;;;;5.35;1.70;;;;;;;;;;5045341;28;20040;-64
2024/01/03 14:20:21;;;;;;;5.78;1.40;;;;;;;;;;5046107;28;20049;-64
2024/01/03 14:22:47;;;;;;;8.32;2.20;;;;;;;;;;5046890;28;20091;-63
2024/01/03 14:25:13;;;;;;;7.20;2.13;;;;;;;;;;5042548;28;20045;-63
2024/01/03 14:27:40;;;;;;;8.55;2.40;;;;;;;;;;5043205;28;20737;-63
2024/01/03 14:30:09;;;;;;;7.43;2.20;;;;;;;;;;5045897;28;20067;-63
2024/01/03 14:32:36;;;;;;;7.32;2.08;;;;;;;;;;5051440;28;20041;-63